Time;durP1;ratioP1;P1;durP2;ratioP2;P2;SDS_P1;SDS_P2;PMS_P1;PMS_P2;Temp;Humidity;BMP_temperature;BMP_pressure;BME280_temperature;BME280_humidity;BME280_pressure;Samples;Min_cycle;Max_cycle;Signal;HPM_P1;HPM_P2
2022/03/19 00:01:55;;;;;;;13.27;2.55;;;5.80;99.90;;;;;;5129091;27;20039;-80
2022/03/19 00:04:21;;;;;;;11.82;2.17;;;5.80;99.90;;;;;;5111058;28;20079;-80
2022/03/19 00:06:47;;;;;;;15.38;2.15;;;5.70;99.90;;;;;;5129397;27;20039;-80
2022/03/19 00:09:13;;;;;;;17.25;3.55;;;5.70;99.90;;;;;;5128034;27;20407;-80
2022/03/19 00:11:40;;;;;;;16.50;3.67;;;5.70;99.90;;;;;;5110054;27;20043;-80
2022/03/19 00:14:06;;;;;;;18.23;2.70;;;5.70;99.90;;;;;;5128862;27;20047;-80
2022/03/19 00:16:32;;;;;;;13.95;3.00;;;5.60;99.90;;;;;;5111129;28;20035;-80
2022/03/19 00:18:58;;;;;;;13.82;2.05;;;5.70;99.90;;;;;;5128652;27;20058;-80
2022/03/19 00:21:24;;;;;;;14.63;2.83;;;5.70;99.90;;;;;;5093191;28;20485;-80
2022/03/19 00:23:50;;;;;;;15.38;2.85;;;5.70;99.90;;;;;;5110911;28;20079;-80
2022/03/19 00:26:16;;;;;;;;;;;5.70;99.90;;;;;;5111309;28;20880;-80
2022/03/19 00:28:42;;;;;;;14.05;3.00;;;5.70;99.90;;;;;;5110389;28;19968;-80
2022/03/19 00:31:08;;;;;;;17.23;2.38;;;5.70;99.90;;;;;;5110910;28;20187;-80
2022/03/19 00:33:34;;;;;;;19.52;2.95;;;5.70;99.90;;;;;;5110268;28;20047;-80
2022/03/19 00:36:00;;;;;;;17.20;3.80;;;5.70;99.90;;;;;;5110240;28;20035;-80
2022/03/19 00:38:26;;;;;;;16.13;3.03;;;5.70;99.90;;;;;;5110678;28;20108;-80
2022/03/19 00:40:52;;;;;;;20.15;3.60;;;5.70;99.90;;;;;;5110487;28;20047;-80
2022/03/19 00:43:21;;;;;;;17.48;3.00;;;5.70;99.90;;;;;;5110432;28;20049;-80
2022/03/19 00:45:48;;;;;;;14.05;2.53;;;5.70;99.90;;;;;;5113195;27;20089;-80
2022/03/19 00:48:14;;;;;;;17.70;2.70;;;5.70;99.90;;;;;;5097363;27;20043;-80
2022/03/19 00:50:41;;;;;;;17.15;2.58;;;5.70;99.90;;;;;;5114544;27;20089;-80
2022/03/19 00:53:06;;;;;;;13.82;2.55;;;5.70;99.90;;;;;;5133293;27;20051;-80
2022/03/19 00:55:32;;;;;;;19.25;3.13;;;5.70;99.90;;;;;;5133563;27;20070;-80
2022/03/19 00:57:58;;;;;;;12.50;2.80;;;5.70;99.90;;;;;;5115873;27;20066;-80
2022/03/19 01:00:25;;;;;;;17.23;2.40;;;5.60;99.90;;;;;;5115356;27;20597;-80
2022/03/19 01:02:51;;;;;;;16.25;2.83;;;5.60;99.90;;;;;;5097989;27;20043;-80
2022/03/19 01:05:17;;;;;;;13.40;2.75;;;5.60;99.90;;;;;;5115540;27;20039;-80
2022/03/19 01:07:48;;;;;;;18.38;3.25;;;5.60;99.90;;;;;;5133458;27;20051;-80
2022/03/19 01:10:19;;;;;;;17.60;3.00;;;5.50;99.90;;;;;;5115118;27;20039;-80
2022/03/19 01:12:45;;;;;;;21.67;3.35;;;5.60;99.90;;;;;;5115225;27;20043;-80
2022/03/19 01:15:11;;;;;;;14.63;2.90;;;5.50;99.90;;;;;;5115312;27;20095;-80
2022/03/19 01:17:37;;;;;;;14.68;2.78;;;5.50;99.90;;;;;;5133350;27;20561;-80
2022/03/19 01:20:04;;;;;;;19.70;2.53;;;5.50;99.90;;;;;;5114917;27;20160;-80
2022/03/19 01:22:31;;;;;;;17.95;3.13;;;5.50;99.90;;;;;;5114246;27;20086;-80
2022/03/19 01:24:59;;;;;;;15.25;2.97;;;5.50;99.90;;;;;;5114806;27;20103;-80
2022/03/19 01:27:24;;;;;;;20.13;2.90;;;5.50;99.90;;;;;;5098256;27;20204;-80
2022/03/19 01:29:50;;;;;;;11.77;2.63;;;5.50;99.90;;;;;;5133354;27;20568;-80
2022/03/19 01:32:16;;;;;;;17.83;3.58;;;5.50;99.90;;;;;;5097773;27;20043;-80
2022/03/19 01:34:41;;;;;;;15.80;3.75;;;5.50;99.90;;;;;;5114410;27;20043;-80
2022/03/19 01:37:07;;;;;;;14.93;3.58;;;5.40;99.90;;;;;;5132589;27;20035;-80
2022/03/19 01:39:33;;;;;;;23.77;5.00;;;5.40;99.90;;;;;;5114786;27;20135;-80
2022/03/19 01:41:58;;;;;;;15.85;2.92;;;5.40;99.90;;;;;;5114210;27;20050;-80
2022/03/19 01:44:24;;;;;;;17.58;3.72;;;5.40;99.90;;;;;;5114628;27;20414;-80
2022/03/19 01:47:10;;;;;;;24.98;3.70;;;5.40;99.90;;;;;;5114838;27;20076;-80
2022/03/19 01:49:37;;;;;;;17.30;3.00;;;5.40;99.90;;;;;;5114604;27;20051;-80
2022/03/19 01:52:04;;;;;;;15.38;3.67;;;5.40;99.90;;;;;;5132990;27;20047;-80
2022/03/19 01:54:34;;;;;;;17.08;3.85;;;5.40;99.90;;;;;;5132770;27;20428;-81
2022/03/19 01:57:01;;;;;;;11.93;3.13;;;5.40;99.90;;;;;;5131888;27;20494;-81
2022/03/19 01:59:34;;;;;;;14.93;2.92;;;5.30;99.90;;;;;;5113937;27;20195;-80
2022/03/19 02:02:01;;;;;;;15.75;3.40;;;5.40;99.90;;;;;;5096913;27;20031;-80
2022/03/19 02:04:28;;;;;;;15.82;3.85;;;5.40;99.90;;;;;;5114248;27;20043;-81
2022/03/19 02:06:54;;;;;;;16.73;4.32;;;5.40;99.90;;;;;;5132573;27;20050;-80
2022/03/19 02:09:20;;;;;;;16.58;3.70;;;5.30;99.90;;;;;;5113621;27;20042;-80
2022/03/19 02:11:46;;;;;;;21.58;3.80;;;5.30;99.90;;;;;;5097163;27;20452;-80
2022/03/19 02:14:12;;;;;;;17.75;3.65;;;5.30;99.90;;;;;;5113815;27;20038;-80
2022/03/19 02:16:39;;;;;;;18.80;5.13;;;5.30;99.90;;;;;;5114114;27;20100;-80
2022/03/19 02:19:05;;;;;;;13.68;3.72;;;5.20;99.90;;;;;;5096500;27;20858;-80
2022/03/19 02:21:45;;;;;;;13.68;3.55;;;5.20;99.90;;;;;;5113963;27;20043;-80
2022/03/19 02:26:57;;;;;;;13.80;3.47;;;5.20;99.90;;;;;;5113365;27;20051;-80
2022/03/19 02:29:23;;;;;;;28.63;5.22;;;5.20;99.90;;;;;;5113792;27;20054;-80
2022/03/19 02:31:53;;;;;;;22.27;3.70;;;5.20;99.90;;;;;;5113765;27;20087;-80
2022/03/19 02:34:19;;;;;;;22.85;4.00;;;5.10;99.90;;;;;;5113770;27;20043;-80
2022/03/19 02:36:45;;;;;;;16.13;3.92;;;5.10;99.90;;;;;;5096679;27;20039;-80
2022/03/19 02:39:17;;;;;;;19.85;5.25;;;5.10;99.90;;;;;;5130375;27;20442;-80
2022/03/19 02:41:44;;;;;;;18.45;4.05;;;5.10;99.90;;;;;;5122778;27;20506;-80
2022/03/19 02:44:11;;;;;;;24.55;4.88;;;5.10;99.90;;;;;;5152557;27;20034;-80
2022/03/19 02:46:43;;;;;;;15.57;3.70;;;5.10;99.90;;;;;;5152049;27;20076;-80
2022/03/19 02:49:09;;;;;;;11.50;3.15;;;5.10;99.90;;;;;;5152103;27;20485;-80
2022/03/19 02:51:38;;;;;;;13.48;3.97;;;5.00;99.90;;;;;;5133652;27;20054;-80
2022/03/19 02:54:06;;;;;;;15.13;3.75;;;5.00;99.90;;;;;;5133531;27;20045;-80
2022/03/19 02:56:33;;;;;;;21.23;4.70;;;5.10;99.90;;;;;;5133640;27;20164;-80
2022/03/19 02:59:10;;;;;;;17.33;4.45;;;5.10;99.90;;;;;;5132935;27;20039;-81
2022/03/19 03:01:37;;;;;;;15.02;3.70;;;5.00;99.90;;;;;;5133499;27;20042;-80
2022/03/19 03:04:03;;;;;;;17.05;4.30;;;5.00;99.90;;;;;;5133511;27;20043;-81
2022/03/19 03:06:33;;;;;;;;;;;5.00;99.90;;;;;;5134095;27;20134;-80
2022/03/19 03:08:58;;;;;;;16.92;4.72;;;5.00;99.90;;;;;;5132419;27;20052;-80
2022/03/19 03:11:24;;;;;;;16.02;4.80;;;5.00;99.90;;;;;;5133317;27;20129;-81
2022/03/19 03:13:50;;;;;;;15.25;5.03;;;5.00;99.90;;;;;;5132765;27;20438;-80
2022/03/19 03:16:16;;;;;;;12.82;4.28;;;4.90;99.90;;;;;;5133610;27;20048;-80
2022/03/19 03:18:42;;;;;;;20.55;4.47;;;5.00;99.90;;;;;;5132847;27;20412;-80
2022/03/19 03:21:07;;;;;;;17.77;4.95;;;4.90;99.90;;;;;;5133455;27;20127;-80
2022/03/19 03:23:34;;;;;;;20.75;4.45;;;4.90;99.90;;;;;;5151145;27;20068;-80
2022/03/19 03:25:59;;;;;;;15.63;4.18;;;4.90;99.90;;;;;;5133235;27;20050;-81
2022/03/19 03:28:25;;;;;;;20.80;4.93;;;4.90;99.90;;;;;;5133266;27;20038;-80
2022/03/19 03:30:51;;;;;;;15.82;4.57;;;4.90;99.90;;;;;;5133059;27;20532;-80
2022/03/19 03:33:17;;;;;;;16.52;4.88;;;4.80;99.90;;;;;;5133013;27;20037;-81
2022/03/19 03:35:42;;;;;;;20.05;5.85;;;4.80;99.90;;;;;;5132590;27;20042;-80
2022/03/19 03:38:08;;;;;;;18.30;4.95;;;4.80;99.90;;;;;;5133008;27;20129;-80
2022/03/19 03:40:33;;;;;;;21.75;5.43;;;4.80;99.90;;;;;;5116028;27;20042;-80
2022/03/19 03:42:59;;;;;;;21.63;5.95;;;4.80;99.90;;;;;;5132389;27;20046;-80
2022/03/19 03:45:29;;;;;;;18.05;5.13;;;4.70;99.90;;;;;;5151178;27;20041;-80
2022/03/19 03:47:55;;;;;;;24.67;6.00;;;4.70;99.90;;;;;;5132632;27;20157;-80
2022/03/19 03:50:20;;;;;;;20.33;5.90;;;4.70;99.90;;;;;;5151616;27;20479;-80
2022/03/19 03:52:48;;;;;;;24.92;6.65;;;4.70;99.90;;;;;;5132312;27;20080;-80
2022/03/19 03:55:14;;;;;;;21.23;6.03;;;4.70;99.90;;;;;;5132567;27;20142;-80
2022/03/19 03:57:40;;;;;;;20.98;7.18;;;4.70;99.90;;;;;;5132794;27;20038;-80
2022/03/19 04:00:08;;;;;;;25.08;7.10;;;4.70;99.90;;;;;;5132675;27;20074;-81
2022/03/19 04:02:35;;;;;;;19.15;7.47;;;4.60;99.90;;;;;;5132232;27;20077;-80
2022/03/19 04:05:01;;;;;;;21.40;7.00;;;4.60;99.90;;;;;;5132494;27;20039;-80
2022/03/19 04:07:27;;;;;;;15.27;6.45;;;4.60;99.90;;;;;;5132631;27;20103;-80
2022/03/19 04:09:54;;;;;;;16.77;6.80;;;4.60;99.90;;;;;;5132527;27;20472;-80
2022/03/19 04:12:19;;;;;;;19.45;7.70;;;4.60;99.90;;;;;;5132382;27;20126;-81
2022/03/19 04:14:45;;;;;;;24.05;7.93;;;4.60;99.90;;;;;;5131971;27;20122;-80
2022/03/19 04:17:11;;;;;;;22.92;7.63;;;4.60;99.90;;;;;;5150187;27;20063;-80
2022/03/19 04:19:36;;;;;;;28.00;8.48;;;4.50;99.90;;;;;;5131879;27;20038;-80
2022/03/19 04:22:02;;;;;;;27.27;10.10;;;4.50;99.90;;;;;;5132179;27;20099;-81
2022/03/19 04:24:28;;;;;;;24.27;9.45;;;4.50;99.90;;;;;;5131978;27;20404;-80
2022/03/19 04:26:53;;;;;;;28.23;9.57;;;4.50;99.90;;;;;;5114885;27;20118;-81
2022/03/19 04:29:19;;;;;;;20.30;9.98;;;4.50;99.90;;;;;;5132398;27;20047;-80
2022/03/19 04:31:44;;;;;;;24.85;9.30;;;4.50;99.90;;;;;;5132200;27;20489;-80
2022/03/19 04:34:10;;;;;;;;;;;4.40;99.90;;;;;;5132675;27;20047;-81
2022/03/19 04:36:37;;;;;;;21.65;8.63;;;4.40;99.90;;;;;;5131477;27;20381;-81
2022/03/19 04:39:05;;;;;;;24.17;9.90;;;4.40;99.90;;;;;;5131957;27;20107;-80
2022/03/19 04:41:32;;;;;;;23.23;9.70;;;4.30;99.90;;;;;;5132116;27;20038;-81
2022/03/19 04:43:58;;;;;;;24.60;9.65;;;4.30;99.90;;;;;;5132201;27;20091;-81
2022/03/19 04:46:24;;;;;;;22.13;10.15;;;4.30;99.90;;;;;;5150209;27;20072;-80
2022/03/19 04:48:50;;;;;;;28.88;9.75;;;4.30;99.90;;;;;;5132143;27;20039;-80
2022/03/19 04:51:18;;;;;;;25.80;10.52;;;4.30;99.90;;;;;;5131927;27;20050;-80
2022/03/19 04:53:51;;;;;;;23.40;9.77;;;4.30;99.90;;;;;;5131992;27;20095;-81
2022/03/19 04:56:18;;;;;;;25.50;9.63;;;4.30;99.90;;;;;;5132079;27;20057;-80
2022/03/19 04:58:44;;;;;;;27.08;9.75;;;4.20;99.90;;;;;;5114589;27;20047;-81
2022/03/19 05:01:10;;;;;;;25.35;9.38;;;4.20;99.90;;;;;;5131730;27;20042;-81
2022/03/19 05:03:35;;;;;;;22.10;9.48;;;4.20;99.90;;;;;;5114788;27;20065;-81
2022/03/19 05:06:01;;;;;;;25.90;10.07;;;4.10;99.90;;;;;;5131878;27;20038;-80
2022/03/19 05:08:27;;;;;;;18.17;8.65;;;4.10;99.90;;;;;;5131944;27;20046;-80
2022/03/19 05:13:36;;;;;;;26.70;9.55;;;4.10;99.90;;;;;;5131907;27;20519;-81
2022/03/19 05:16:02;;;;;;;21.92;10.30;;;4.10;99.90;;;;;;5132289;27;20050;-81
2022/03/19 05:18:27;;;;;;;22.67;10.00;;;4.10;99.90;;;;;;5131235;27;20053;-80
2022/03/19 05:20:53;;;;;;;27.15;10.02;;;4.10;99.90;;;;;;5131843;27;20046;-80
2022/03/19 05:23:19;;;;;;;25.45;10.38;;;4.10;99.90;;;;;;5131603;27;20042;-80
2022/03/19 05:25:45;;;;;;;21.92;9.80;;;4.10;99.90;;;;;;5131391;27;20480;-81
2022/03/19 05:28:10;;;;;;;21.17;9.20;;;4.10;99.90;;;;;;5131838;27;20034;-81
2022/03/19 05:30:37;;;;;;;24.13;8.85;;;4.10;99.90;;;;;;5131816;27;20047;-80
2022/03/19 05:33:04;;;;;;;24.83;8.52;;;4.10;99.90;;;;;;5153126;27;20133;-80
2022/03/19 05:35:30;;;;;;;20.25;9.27;;;4.20;99.90;;;;;;5135213;27;20390;-81
2022/03/19 05:37:59;;;;;;;21.50;9.02;;;4.20;99.90;;;;;;5135387;27;20047;-81
2022/03/19 05:40:25;;;;;;;22.50;9.00;;;4.20;99.90;;;;;;5135187;27;20050;-81
2022/03/19 05:42:50;;;;;;;23.10;8.95;;;4.30;99.90;;;;;;5117287;27;20055;-81
2022/03/19 05:45:19;;;;;;;26.83;9.65;;;4.30;99.90;;;;;;5135595;27;20427;-81
2022/03/19 05:47:45;;;;;;;17.08;7.10;;;4.40;99.90;;;;;;5134884;27;20070;-81
2022/03/19 05:50:11;;;;;;;18.42;7.32;;;4.40;99.90;;;;;;5130125;27;20071;-81
2022/03/19 05:52:37;;;;;;;18.70;7.60;;;4.50;99.90;;;;;;5114636;27;20047;-81
2022/03/19 05:55:04;;;;;;;21.35;8.02;;;4.60;99.90;;;;;;5114243;27;20134;-81
2022/03/19 05:57:30;;;;;;;18.33;8.20;;;4.70;99.90;;;;;;5114588;27;20121;-81
2022/03/19 05:59:56;;;;;;;20.75;8.30;;;4.70;99.90;;;;;;5114007;27;20656;-81
2022/03/19 06:02:21;;;;;;;18.60;7.75;;;4.70;99.90;;;;;;5114141;27;20047;-81
2022/03/19 06:04:47;;;;;;;19.85;7.78;;;4.70;99.90;;;;;;5114243;27;20478;-81
2022/03/19 06:07:13;;;;;;;17.85;7.68;;;4.70;99.90;;;;;;5114293;27;20047;-81
2022/03/19 06:09:38;;;;;;;17.85;7.60;;;4.70;99.90;;;;;;5113674;27;20404;-81
2022/03/19 06:12:04;;;;;;;24.42;7.78;;;4.70;99.90;;;;;;5114590;27;20097;-81
2022/03/19 06:14:30;;;;;;;15.63;7.55;;;4.70;99.90;;;;;;5113908;27;20094;-81
2022/03/19 06:16:55;;;;;;;17.48;7.45;;;4.70;99.90;;;;;;5113426;27;20082;-81
2022/03/19 06:19:21;;;;;;;15.40;6.57;;;4.80;99.90;;;;;;5113967;27;20059;-81
2022/03/19 06:21:47;;;;;;;17.25;6.53;;;4.70;99.90;;;;;;5113595;27;20141;-81
2022/03/19 06:24:13;;;;;;;17.98;7.05;;;4.80;99.90;;;;;;5113895;27;20046;-81
2022/03/19 06:26:39;;;;;;;16.98;6.60;;;4.80;99.90;;;;;;5113367;27;20043;-80
2022/03/19 06:29:05;;;;;;;15.80;6.28;;;4.80;99.90;;;;;;5113602;27;20138;-81
2022/03/19 06:31:30;;;;;;;15.15;5.65;;;4.90;99.90;;;;;;5113421;27;20134;-81
2022/03/19 06:33:56;;;;;;;14.82;5.68;;;5.00;99.90;;;;;;5113790;27;20129;-81
2022/03/19 06:39:06;;;;;;;15.25;5.00;;;5.10;99.90;;;;;;5113794;27;20107;-81
2022/03/19 06:41:33;;;;;;;18.98;5.80;;;5.10;99.90;;;;;;5132132;27;20074;-80
2022/03/19 06:43:59;;;;;;;14.80;5.03;;;5.20;99.90;;;;;;5096418;27;20051;-81
2022/03/19 06:46:25;;;;;;;16.73;5.13;;;5.20;99.90;;;;;;5113511;27;20035;-81
2022/03/19 06:48:51;;;;;;;24.63;5.97;;;5.20;99.90;;;;;;5113558;27;20089;-81
2022/03/19 06:51:18;;;;;;;15.40;5.20;;;5.30;99.90;;;;;;5127381;27;20066;-81
2022/03/19 06:53:44;;;;;;;19.05;5.35;;;5.30;99.90;;;;;;5133256;27;20094;-81
2022/03/19 06:56:10;;;;;;;18.50;5.10;;;5.30;99.90;;;;;;5133909;27;20466;-81
2022/03/19 06:58:36;;;;;;;14.93;4.57;;;5.40;99.90;;;;;;5134095;27;20051;-81
2022/03/19 07:01:03;;;;;;;18.27;5.82;;;5.50;99.90;;;;;;5133455;27;20073;-81
2022/03/19 07:03:30;;;;;;;14.48;4.68;;;5.50;99.90;;;;;;5133466;27;20528;-81
2022/03/19 07:05:56;;;;;;;18.70;5.30;;;5.60;99.90;;;;;;5133350;27;20047;-80
2022/03/19 07:08:21;;;;;;;18.73;5.30;;;5.60;99.90;;;;;;5133634;27;20038;-81
2022/03/19 07:10:48;;;;;;;17.27;5.18;;;5.70;99.90;;;;;;5133132;27;20047;-81
2022/03/19 07:13:14;;;;;;;19.85;5.22;;;5.70;99.90;;;;;;5116005;27;20506;-81
2022/03/19 07:15:40;;;;;;;10.05;4.30;;;5.70;99.90;;;;;;5133829;27;20082;-81
2022/03/19 07:18:05;;;;;;;14.63;4.43;;;5.70;99.90;;;;;;5133023;27;20791;-82
2022/03/19 07:20:31;;;;;;;12.43;4.40;;;5.80;99.90;;;;;;5133336;27;20047;-80
2022/03/19 07:23:02;;;;;;;17.95;4.93;;;5.80;99.90;;;;;;5133291;27;20049;-80
2022/03/19 07:25:33;;;;;;;;;;;5.80;99.90;;;;;;5133214;27;20039;-80
2022/03/19 07:28:01;;;;;;;21.80;5.70;;;5.90;99.90;;;;;;5133028;27;19919;-80
2022/03/19 07:30:27;;;;;;;12.27;4.55;;;5.90;99.90;;;;;;5133272;27;20043;-80
2022/03/19 07:32:53;;;;;;;15.00;4.88;;;5.90;99.90;;;;;;5132548;27;20039;-79
2022/03/19 07:35:20;;;;;;;16.23;5.28;;;6.00;99.90;;;;;;5144773;27;20078;-80
2022/03/19 07:37:46;;;;;;;19.17;4.97;;;6.00;99.90;;;;;;5133243;27;20046;-80
2022/03/19 07:40:14;;;;;;;19.80;6.57;;;6.10;99.90;;;;;;5108775;27;20404;-80
2022/03/19 07:42:40;;;;;;;;;;;6.10;99.90;;;;;;5111732;27;20509;-80
2022/03/19 07:45:07;;;;;;;;;;;6.20;99.90;;;;;;5109945;27;19920;-80
2022/03/19 07:47:33;;;;;;;;;;;6.20;99.90;;;;;;5129374;27;20389;-80
2022/03/19 07:49:59;;;;;;;;;;;6.20;99.90;;;;;;5129457;27;19970;-80
2022/03/19 07:52:25;;;;;;;;;;;6.30;99.90;;;;;;5129725;27;20011;-80
2022/03/19 07:54:54;;;;;;;;;;;6.30;99.90;;;;;;5115409;27;19955;-81
2022/03/19 07:57:21;;;;;;;;;;;6.30;99.90;;;;;;5134005;27;19919;-81
2022/03/19 07:59:46;;;;;;;;;;;6.40;99.90;;;;;;5115181;27;19927;-81
2022/03/19 08:02:12;;;;;;;;;;;6.40;99.90;;;;;;5115780;27;20055;-81
2022/03/19 08:04:37;;;;;;;;;;;6.50;99.90;;;;;;5115621;27;20472;-79
2022/03/19 08:07:03;;;;;;;;;;;6.50;99.90;;;;;;5129420;27;19930;-81
2022/03/19 08:09:29;;;;;;;;;;;6.60;99.90;;;;;;5115370;27;19923;-81
2022/03/19 08:11:55;;;;;;;;;;;6.60;99.90;;;;;;5128872;27;19987;-81
2022/03/19 08:14:20;;;;;;;;;;;6.70;99.90;;;;;;5094667;27;19920;-80
2022/03/19 08:16:46;;;;;;;;;;;6.70;99.90;;;;;;5115959;27;19941;-81
2022/03/19 08:19:12;;;;;;;;;;;6.80;99.90;;;;;;5129435;27;20014;-81
2022/03/19 08:21:38;;;;;;;;;;;6.90;99.90;;;;;;5110336;28;19925;-81
2022/03/19 08:24:07;;;;;;;;;;;6.90;99.90;;;;;;5110187;27;19943;-81
2022/03/19 08:26:33;;;;;;;;;;;7.00;99.90;;;;;;5110223;27;19998;-81
2022/03/19 08:28:58;;;;;;;;;;;7.00;99.90;;;;;;5110262;27;20050;-81
2022/03/19 08:31:24;;;;;;;;;;;7.10;99.90;;;;;;5114719;28;19967;-81
2022/03/19 08:33:49;;;;;;;;;;;7.20;99.90;;;;;;5129181;27;19941;-80
2022/03/19 08:36:15;;;;;;;;;;;7.20;99.90;;;;;;5127287;28;20308;-80
2022/03/19 08:41:25;;;;;;;;;;;7.30;99.90;;;;;;5109895;27;19927;-80
2022/03/19 08:43:50;;;;;;;;;;;7.30;99.90;;;;;;5108468;27;19926;-80
2022/03/19 08:46:16;;;;;;;;;;;7.40;99.90;;;;;;5130157;27;19967;-80
2022/03/19 08:48:41;;;;;;;17.85;4.18;;;7.40;99.90;;;;;;5118523;27;20324;-80
2022/03/19 08:53:51;;;;;;;16.07;4.90;;;7.50;99.90;;;;;;5126202;28;20414;-80
2022/03/19 08:56:18;;;;;;;20.48;5.32;;;7.60;99.90;;;;;;5128766;27;20456;-80
2022/03/19 08:58:43;;;;;;;14.10;4.50;;;7.60;99.90;;;;;;5130837;27;20078;-80
2022/03/19 09:01:09;;;;;;;19.98;4.10;;;7.70;99.90;;;;;;5119927;28;20120;-80
2022/03/19 09:03:35;;;;;;;17.63;4.80;;;7.80;99.90;;;;;;5109763;28;20836;-80
2022/03/19 09:06:01;;;;;;;17.08;4.22;;;7.90;99.90;;;;;;5110167;27;20404;-80
2022/03/19 09:08:27;;;;;;;16.95;4.82;;;7.90;99.90;;;;;;5114200;27;20228;-80
2022/03/19 09:10:53;;;;;;;14.07;4.13;;;8.00;99.90;;;;;;5114242;27;20413;-80
2022/03/19 09:13:19;;;;;;;14.30;3.85;;;8.00;99.90;;;;;;5117854;27;20043;-78
2022/03/19 09:15:45;;;;;;;18.08;3.67;;;8.10;99.90;;;;;;5132792;27;20613;-79
2022/03/19 09:18:10;;;;;;;16.83;4.00;;;8.10;99.90;;;;;;5113637;27;20539;-79
2022/03/19 09:20:36;;;;;;;13.98;3.72;;;8.20;99.90;;;;;;5113880;27;20051;-79
2022/03/19 09:23:03;;;;;;;16.80;4.80;;;8.30;99.90;;;;;;5112276;27;20518;-79
2022/03/19 09:25:29;;;;;;;19.67;5.10;;;8.70;99.90;;;;;;5112565;27;22095;-79
2022/03/19 09:27:56;;;;;;;16.60;4.85;;;9.80;99.90;;;;;;5132106;27;20468;-79
2022/03/19 09:30:21;;;;;;;15.30;4.50;;;10.80;99.90;;;;;;5133080;27;20401;-80
2022/03/19 09:32:47;;;;;;;14.00;4.13;;;11.60;99.90;;;;;;5132333;27;20407;-80
2022/03/19 09:35:13;;;;;;;13.20;3.90;;;12.30;98.70;;;;;;5129682;27;20432;-80
2022/03/19 09:37:38;;;;;;;14.43;3.80;;;12.80;95.30;;;;;;5132615;27;20492;-80
2022/03/19 09:40:05;;;;;;;13.98;3.97;;;13.10;91.00;;;;;;5132828;27;20492;-80
2022/03/19 09:42:34;;;;;;;14.05;3.40;;;13.40;90.40;;;;;;5116794;27;20458;-80
2022/03/19 09:45:00;;;;;;;12.27;3.40;;;13.60;86.00;;;;;;5135385;27;20424;-79
2022/03/19 09:47:26;;;;;;;11.90;3.47;;;13.90;88.50;;;;;;5132335;27;21387;-80
2022/03/19 09:49:53;;;;;;;11.82;3.38;;;14.40;89.90;;;;;;5115331;27;20397;-80
2022/03/19 09:52:24;;;;;;;12.43;3.50;;;14.90;82.50;;;;;;5133007;27;20408;-80
2022/03/19 09:54:50;;;;;;;12.07;3.30;;;15.20;80.10;;;;;;5116132;27;20418;-80
2022/03/19 09:57:16;;;;;;;11.60;3.20;;;15.40;77.20;;;;;;5131471;27;20445;-80
2022/03/19 09:59:41;;;;;;;11.03;3.37;;;15.70;76.30;;;;;;5131274;27;20884;-80
2022/03/19 10:02:10;;;;;;;11.48;3.08;;;15.80;76.00;;;;;;5130629;27;20441;-80
2022/03/19 10:04:40;;;;;;;15.27;3.35;;;15.90;75.20;;;;;;5113749;27;20415;-80
2022/03/19 10:09:50;;;;;;;11.10;3.20;;;16.20;71.30;;;;;;5130809;27;20905;-80
2022/03/19 10:12:21;;;;;;;11.32;3.35;;;16.30;70.40;;;;;;5115639;27;20507;-80
2022/03/19 10:14:55;;;;;;;13.27;3.40;;;16.50;67.20;;;;;;5095382;27;20977;-80
2022/03/19 10:17:36;;;;;;;10.23;3.30;;;16.70;67.10;;;;;;5127926;27;20769;-80
2022/03/19 10:20:07;;;;;;;10.32;2.65;;;16.90;66.50;;;;;;5120031;27;21037;-79
2022/03/19 10:22:34;;;;;;;11.05;2.72;;;17.10;67.60;;;;;;5107085;27;20421;-80
2022/03/19 10:25:08;;;;;;;8.57;2.90;;;17.30;64.30;;;;;;5087835;27;20422;-80
2022/03/19 10:27:36;;;;;;;10.70;3.17;;;17.50;63.80;;;;;;5099156;27;20997;-80
2022/03/19 10:30:06;;;;;;;10.77;3.00;;;17.70;63.90;;;;;;5105184;27;20430;-80
2022/03/19 10:32:32;;;;;;;10.13;2.50;;;17.80;61.80;;;;;;5101187;28;20521;-80
2022/03/19 10:34:58;;;;;;;10.93;2.63;;;18.00;61.30;;;;;;5093108;28;20851;-79
2022/03/19 10:37:41;;;;;;;10.55;2.85;;;18.00;61.20;;;;;;5116331;27;20491;-79
2022/03/19 10:40:43;;;;;;;8.27;2.33;;;18.10;59.40;;;;;;5121033;27;1937676;-80
2022/03/19 10:43:10;;;;;;;9.00;2.40;;;18.20;59.00;;;;;;5147990;27;20420;-80
2022/03/19 10:45:44;;;;;;;7.43;2.22;;;18.30;60.80;;;;;;5149063;27;20961;-80
2022/03/19 10:48:13;;;;;;;7.70;2.30;;;18.50;59.10;;;;;;5149004;27;20488;-80
2022/03/19 10:50:42;;;;;;;7.07;2.10;;;18.70;57.70;;;;;;5142377;27;20414;-80
2022/03/19 10:53:08;;;;;;;6.93;2.00;;;18.90;58.00;;;;;;5139638;27;20844;-81
2022/03/19 10:55:34;;;;;;;6.60;1.67;;;19.00;53.50;;;;;;5128741;27;20481;-80
2022/03/19 10:57:59;;;;;;;6.65;1.70;;;19.10;55.10;;;;;;5128325;27;20794;-80
2022/03/19 11:00:25;;;;;;;10.13;1.40;;;19.10;54.70;;;;;;5128374;27;20438;-80
2022/03/19 11:02:56;;;;;;;3.63;1.05;;;19.10;54.20;;;;;;5128020;27;20423;-80
2022/03/19 11:05:23;;;;;;;5.03;1.00;;;19.10;49.70;;;;;;5110661;27;20406;-80
2022/03/19 11:07:51;;;;;;;3.50;1.00;;;18.80;49.00;;;;;;5127911;27;20488;-80
2022/03/19 11:10:19;;;;;;;6.03;1.00;;;18.70;50.50;;;;;;5111233;27;20900;-80
2022/03/19 11:12:50;;;;;;;3.83;0.73;;;18.70;49.50;;;;;;5110527;27;20410;-80
2022/03/19 11:15:18;;;;;;;3.55;1.00;;;19.00;52.00;;;;;;5127533;27;20435;-80
2022/03/19 11:17:45;;;;;;;4.80;1.35;;;19.20;49.80;;;;;;5109496;27;20764;-80
2022/03/19 11:20:12;;;;;;;3.83;1.00;;;19.40;48.40;;;;;;5127412;27;20465;-80
2022/03/19 11:22:47;;;;;;;5.32;1.35;;;19.40;51.10;;;;;;5147430;27;20747;-80
2022/03/19 11:25:31;;;;;;;4.35;1.33;;;19.50;47.90;;;;;;5118888;27;20515;-80
2022/03/19 11:28:07;;;;;;;4.47;1.20;;;19.40;48.80;;;;;;5145589;27;20416;-81
2022/03/19 11:30:35;;;;;;;3.50;0.80;;;19.50;48.20;;;;;;5130025;27;20407;-81
2022/03/19 11:33:19;;;;;;;5.65;1.42;;;19.50;48.40;;;;;;5130068;27;20412;-81
2022/03/19 11:36:03;;;;;;;5.45;1.55;;;19.60;48.40;;;;;;5135040;27;20928;-81
2022/03/19 11:38:37;;;;;;;5.75;1.30;;;19.80;51.60;;;;;;5108972;28;20427;-80
2022/03/19 11:41:22;;;;;;;6.50;1.10;;;20.20;50.70;;;;;;5118571;28;20073;-81
2022/03/19 11:43:48;;;;;;;5.60;1.20;;;20.20;48.00;;;;;;5094996;27;20082;-81
2022/03/19 11:46:14;;;;;;;3.47;0.90;;;20.00;45.30;;;;;;5111357;27;20505;-80
2022/03/19 11:48:45;;;;;;;4.88;1.00;;;19.70;47.00;;;;;;5094768;27;20048;-80
2022/03/19 11:51:35;;;;;;;4.65;1.10;;;19.60;48.00;;;;;;5098012;27;20769;-80
2022/03/19 11:54:16;;;;;;;5.28;1.20;;;19.50;48.60;;;;;;5112012;27;20452;-80
2022/03/19 11:56:42;;;;;;;;;;;19.70;50.60;;;;;;5105179;28;20514;-81
2022/03/19 11:59:13;;;;;;;;;;;19.90;48.40;;;;;;5096415;28;19972;-80
2022/03/19 12:01:48;;;;;;;;;;;20.00;47.90;;;;;;5092697;27;19923;-80
2022/03/19 12:04:14;;;;;;;;;;;19.80;46.80;;;;;;5093490;27;19933;-80
2022/03/19 12:06:49;;;;;;;;;;;19.70;44.80;;;;;;5102423;27;19974;-80
2022/03/19 12:09:14;;;;;;;;;;;19.90;46.20;;;;;;5085739;28;19920;-79
2022/03/19 12:11:40;;;;;;;;;;;20.00;45.20;;;;;;5089683;27;19972;-78
2022/03/19 12:14:15;;;;;;;;;;;20.10;45.90;;;;;;5111406;27;19966;-79
2022/03/19 12:16:41;;;;;;;;;;;20.20;47.10;;;;;;5105197;27;19974;-78
2022/03/19 12:19:08;;;;;;;;;;;20.30;45.60;;;;;;5114691;27;20030;-80
2022/03/19 12:21:35;;;;;;;;;;;20.20;45.30;;;;;;5112504;27;20020;-79
2022/03/19 12:24:09;;;;;;;;;;;20.40;46.60;;;;;;5094172;28;19923;-80
2022/03/19 12:26:36;;;;;;;;;;;20.50;46.20;;;;;;5114170;27;20218;-80
2022/03/19 12:29:03;;;;;;;;;;;20.80;47.10;;;;;;5097176;27;20423;-80
2022/03/19 12:31:33;;;;;;;;;;;21.10;46.70;;;;;;5098734;28;19920;-80
2022/03/19 12:33:59;;;;;;;;;;;20.90;44.70;;;;;;5077280;28;20352;-79
2022/03/19 12:36:25;;;;;;;;;;;20.90;45.60;;;;;;5093686;28;20030;-79
2022/03/19 12:38:52;;;;;;;;;;;21.00;44.70;;;;;;5089766;27;19958;-79
2022/03/19 12:41:28;;;;;;;;;;;21.20;44.90;;;;;;5097353;27;19919;-79
2022/03/19 12:43:55;;;;;;;;;;;21.40;45.60;;;;;;5091937;27;19953;-79
2022/03/19 12:46:25;;;;;;;;;;;21.70;44.40;;;;;;5094389;27;20024;-79
2022/03/19 12:48:51;;;;;;;;;;;21.60;41.60;;;;;;5113848;27;19919;-80
2022/03/19 12:51:24;;;;;;;;;;;21.40;43.40;;;;;;5083068;28;19926;-80
2022/03/19 12:53:49;;;;;;;;;;;21.20;42.30;;;;;;5075553;27;19931;-79
2022/03/19 12:56:16;;;;;;;;;;;21.30;43.80;;;;;;5111836;27;20431;-79
2022/03/19 12:58:46;;;;;;;;;;;21.40;41.00;;;;;;5113670;27;19966;-79
2022/03/19 13:01:15;;;;;;;;;;;21.40;41.80;;;;;;5096798;27;19930;-79
2022/03/19 13:03:41;;;;;;;;;;;21.30;40.40;;;;;;5094286;27;19920;-79
2022/03/19 13:06:07;;;;;;;;;;;21.20;42.50;;;;;;5095161;27;19923;-79
2022/03/19 13:08:49;;;;;;;;;;;21.50;43.20;;;;;;5113053;27;20361;-79
2022/03/19 13:11:15;;;;;;;;;;;21.60;42.20;;;;;;5096556;28;20006;-79
2022/03/19 13:13:41;;;;;;;;;;;21.60;41.90;;;;;;5076069;28;19955;-79
2022/03/19 13:16:07;;;;;;;;;;;21.60;43.20;;;;;;5093450;28;19927;-79
2022/03/19 13:18:35;;;;;;;;;;;21.80;43.40;;;;;;5076360;28;19920;-79
2022/03/19 13:21:08;;;;;;;;;;;22.10;43.10;;;;;;5080042;28;19942;-79